Time;durP1;ratioP1;P1;durP2;ratioP2;P2;SDS_P1;SDS_P2;PMS_P1;PMS_P2;Temp;Humidity;BMP_temperature;BMP_pressure;BME280_temperature;BME280_humidity;BME280_pressure;Samples;Min_cycle;Max_cycle;Signal;HPM_P1;HPM_P2
2022/08/02 00:00:19;;;;;;;0.50;0.50;;;;;;;;;;1885544;75;26304;-86
2022/08/02 00:02:48;;;;;;;0.55;0.55;;;;;;;;;;1879466;74;26261;-86
2022/08/02 00:05:15;;;;;;;0.53;0.53;;;;;;;;;;1877099;75;26249;-87
2022/08/02 00:07:42;;;;;;;0.70;0.70;;;;;;;;;;1870423;75;26315;-87
2022/08/02 00:10:11;;;;;;;0.55;0.55;;;;;;;;;;1857287;75;26274;-86
2022/08/02 00:12:39;;;;;;;0.70;0.70;;;;;;;;;;1867926;75;26777;-86
2022/08/02 00:15:07;;;;;;;0.60;0.60;;;;;;;;;;1872966;74;26331;-86
2022/08/02 00:17:34;;;;;;;0.70;0.70;;;;;;;;;;1869748;74;26233;-86
2022/08/02 00:20:01;;;;;;;0.62;0.62;;;;;;;;;;1869128;75;26741;-87
2022/08/02 00:22:29;;;;;;;0.60;0.60;;;;;;;;;;1874655;75;26241;-87
2022/08/02 00:24:56;;;;;;;0.50;0.50;;;;;;;;;;1868311;74;26253;-86
2022/08/02 00:27:23;;;;;;;0.82;0.50;;;;;;;;;;1864715;74;26182;-86
2022/08/02 00:29:51;;;;;;;0.55;0.55;;;;;;;;;;1874146;75;26232;-86
2022/08/02 00:32:18;;;;;;;0.70;0.70;;;;;;;;;;1862909;75;26237;-87
2022/08/02 00:34:45;;;;;;;0.62;0.62;;;;;;;;;;1869938;74;26220;-86
2022/08/02 00:37:13;;;;;;;0.70;0.70;;;;;;;;;;1876892;75;26315;-86
2022/08/02 00:39:45;;;;;;;0.55;0.55;;;;;;;;;;1886948;75;26337;-86
2022/08/02 00:42:10;;;;;;;0.65;0.65;;;;;;;;;;1873061;74;26305;-86
2022/08/02 00:44:37;;;;;;;0.53;0.53;;;;;;;;;;1868188;75;26713;-86
2022/08/02 00:47:04;;;;;;;0.60;0.60;;;;;;;;;;1869212;75;26822;-86
2022/08/02 00:49:32;;;;;;;0.60;0.60;;;;;;;;;;1880316;75;26330;-86
2022/08/02 00:51:59;;;;;;;0.42;0.42;;;;;;;;;;1879276;75;26425;-86
2022/08/02 00:54:26;;;;;;;0.68;0.68;;;;;;;;;;1881571;75;26218;-86
2022/08/02 00:56:54;;;;;;;0.50;0.50;;;;;;;;;;1879316;75;26241;-87
2022/08/02 00:59:21;;;;;;;0.60;0.60;;;;;;;;;;1870074;75;26325;-86
2022/08/02 01:01:50;;;;;;;0.60;0.60;;;;;;;;;;1885017;75;26316;-86
2022/08/02 01:04:17;;;;;;;0.55;0.55;;;;;;;;;;1876706;75;26662;-86
2022/08/02 01:06:44;;;;;;;0.72;0.72;;;;;;;;;;1873530;75;26694;-86
2022/08/02 01:09:12;;;;;;;0.57;0.57;;;;;;;;;;1871398;75;26689;-86
2022/08/02 01:11:39;;;;;;;0.60;0.60;;;;;;;;;;1876047;75;26698;-87
2022/08/02 01:14:11;;;;;;;0.60;0.60;;;;;;;;;;1879422;74;26233;-86
2022/08/02 01:16:56;;;;;;;0.70;0.70;;;;;;;;;;1867216;75;26631;-86
2022/08/02 01:19:27;;;;;;;0.70;0.70;;;;;;;;;;1875311;74;26208;-86
2022/08/02 01:21:59;;;;;;;0.50;0.50;;;;;;;;;;1859567;76;26214;-86
2022/08/02 01:24:40;;;;;;;0.68;0.60;;;;;;;;;;1872100;74;26725;-87
2022/08/02 01:27:19;;;;;;;0.60;0.60;;;;;;;;;;1873123;74;26615;-86
2022/08/02 01:29:48;;;;;;;1.17;0.60;;;;;;;;;;1887261;74;26659;-87
2022/08/02 01:32:16;;;;;;;0.60;0.60;;;;;;;;;;1847749;75;26712;-87
2022/08/02 01:34:48;;;;;;;0.60;0.60;;;;;;;;;;1874951;75;26230;-86
2022/08/02 01:37:20;;;;;;;0.60;0.60;;;;;;;;;;1907587;74;26310;-86
2022/08/02 01:39:49;;;;;;;0.50;0.50;;;;;;;;;;1885962;74;26683;-87
2022/08/02 01:42:16;;;;;;;0.60;0.60;;;;;;;;;;1881919;74;26640;-86
2022/08/02 01:44:45;;;;;;;1.20;0.80;;;;;;;;;;1859094;75;26308;-86
2022/08/02 01:47:16;;;;;;;0.65;0.65;;;;;;;;;;1853393;75;26236;-86
2022/08/02 01:49:45;;;;;;;0.60;0.60;;;;;;;;;;1856825;74;26229;-86
2022/08/02 01:52:21;;;;;;;0.57;0.57;;;;;;;;;;1867176;74;26297;-87
2022/08/02 01:55:05;;;;;;;0.57;0.57;;;;;;;;;;1854387;75;26721;-86
2022/08/02 01:57:49;;;;;;;0.60;0.60;;;;;;;;;;1864464;74;26179;-86
2022/08/02 02:00:17;;;;;;;0.60;0.60;;;;;;;;;;1878142;75;26303;-87
2022/08/02 02:02:46;;;;;;;0.50;0.50;;;;;;;;;;1884303;74;26218;-86
2022/08/02 02:05:15;;;;;;;0.60;0.60;;;;;;;;;;1882935;75;26288;-86
2022/08/02 02:07:43;;;;;;;0.70;0.70;;;;;;;;;;1866792;75;26229;-86
2022/08/02 02:10:12;;;;;;;0.60;0.60;;;;;;;;;;1854584;74;26314;-86
2022/08/02 02:12:39;;;;;;;0.60;0.60;;;;;;;;;;1880962;75;26201;-86
2022/08/02 02:15:08;;;;;;;0.50;0.50;;;;;;;;;;1865148;74;26292;-88
2022/08/02 02:17:36;;;;;;;0.60;0.60;;;;;;;;;;1855343;75;26311;-86
2022/08/02 02:20:04;;;;;;;0.65;0.65;;;;;;;;;;1868670;75;26230;-86
2022/08/02 02:22:32;;;;;;;0.60;0.60;;;;;;;;;;1857019;75;26273;-87
2022/08/02 02:24:59;;;;;;;0.40;0.40;;;;;;;;;;1860765;75;26144;-86
2022/08/02 02:27:27;;;;;;;0.65;0.65;;;;;;;;;;1881473;75;26218;-86
2022/08/02 02:29:55;;;;;;;0.50;0.50;;;;;;;;;;1860888;74;26236;-85
2022/08/02 02:32:24;;;;;;;0.70;0.70;;;;;;;;;;1888679;74;26357;-86
2022/08/02 02:34:52;;;;;;;0.50;0.50;;;;;;;;;;1901626;75;26218;-86
2022/08/02 02:37:21;;;;;;;0.60;0.60;;;;;;;;;;1895710;74;26234;-85
2022/08/02 02:39:49;;;;;;;0.60;0.60;;;;;;;;;;1912096;75;26266;-86
2022/08/02 02:42:18;;;;;;;0.60;0.60;;;;;;;;;;1870255;74;26216;-86
2022/08/02 02:44:46;;;;;;;0.60;0.60;;;;;;;;;;1893160;74;26679;-86
2022/08/02 02:47:14;;;;;;;0.70;0.70;;;;;;;;;;1822197;76;26176;-86
2022/08/02 02:49:43;;;;;;;0.65;0.65;;;;;;;;;;1879522;74;26226;-86
2022/08/02 02:52:13;;;;;;;0.70;0.70;;;;;;;;;;1891772;74;26596;-87
2022/08/02 02:54:42;;;;;;;0.60;0.60;;;;;;;;;;1853158;75;26305;-86
2022/08/02 02:57:10;;;;;;;0.50;0.50;;;;;;;;;;1863041;74;26217;-86
2022/08/02 02:59:38;;;;;;;0.60;0.60;;;;;;;;;;1877967;74;26230;-86
2022/08/02 03:02:06;;;;;;;0.70;0.70;;;;;;;;;;1860225;74;26226;-86
2022/08/02 03:04:33;;;;;;;0.40;0.40;;;;;;;;;;1884654;74;26675;-86
2022/08/02 03:07:01;;;;;;;0.60;0.60;;;;;;;;;;1884272;74;26354;-86
2022/08/02 03:09:28;;;;;;;0.60;0.60;;;;;;;;;;1887248;75;26360;-86
2022/08/02 03:11:56;;;;;;;0.50;0.50;;;;;;;;;;1880741;74;26228;-87
2022/08/02 03:14:25;;;;;;;0.60;0.60;;;;;;;;;;1872519;74;26735;-87
2022/08/02 03:16:53;;;;;;;0.50;0.50;;;;;;;;;;1872174;75;26250;-87
2022/08/02 03:19:22;;;;;;;0.55;0.55;;;;;;;;;;1867311;75;26272;-87
2022/08/02 03:21:50;;;;;;;0.60;0.60;;;;;;;;;;1866675;75;26227;-88
2022/08/02 03:24:17;;;;;;;0.50;0.50;;;;;;;;;;1865511;75;26763;-87
2022/08/02 03:26:45;;;;;;;0.72;0.72;;;;;;;;;;1882259;74;26219;-87
2022/08/02 03:29:12;;;;;;;0.50;0.50;;;;;;;;;;1882936;75;26218;-87
2022/08/02 03:31:43;;;;;;;0.72;0.72;;;;;;;;;;1853137;75;26225;-87
2022/08/02 03:34:10;;;;;;;0.60;0.60;;;;;;;;;;1882913;75;26745;-87
2022/08/02 03:36:38;;;;;;;0.50;0.50;;;;;;;;;;1871469;75;26297;-87
2022/08/02 03:39:06;;;;;;;0.55;0.55;;;;;;;;;;1855489;74;26737;-87
2022/08/02 03:41:35;;;;;;;0.60;0.60;;;;;;;;;;1884526;74;26215;-87
2022/08/02 03:44:04;;;;;;;0.60;0.60;;;;;;;;;;1895300;75;26218;-88
2022/08/02 03:46:31;;;;;;;0.57;0.57;;;;;;;;;;1862550;74;26717;-88
2022/08/02 03:48:59;;;;;;;0.65;0.65;;;;;;;;;;1871426;74;26242;-87
2022/08/02 03:51:27;;;;;;;0.60;0.60;;;;;;;;;;1882980;75;26787;-87
2022/08/02 03:53:54;;;;;;;0.60;0.60;;;;;;;;;;1868102;75;26316;-87
2022/08/02 03:56:21;;;;;;;0.60;0.60;;;;;;;;;;1858806;74;26660;-87
2022/08/02 03:58:49;;;;;;;0.70;0.70;;;;;;;;;;1864129;74;26305;-87
2022/08/02 04:01:16;;;;;;;0.60;0.60;;;;;;;;;;1875587;75;26245;-88
2022/08/02 04:03:43;;;;;;;1.57;0.60;;;;;;;;;;1879363;74;26215;-87
2022/08/02 04:06:10;;;;;;;0.60;0.60;;;;;;;;;;1882801;74;26245;-87
2022/08/02 04:08:38;;;;;;;0.53;0.53;;;;;;;;;;1882168;74;26655;-87
2022/08/02 04:13:51;;;;;;;0.60;0.60;;;;;;;;;;1864943;75;26296;-87
2022/08/02 04:16:20;;;;;;;0.60;0.60;;;;;;;;;;1871731;75;26686;-87
2022/08/02 04:18:52;;;;;;;0.53;0.53;;;;;;;;;;1871104;74;26264;-87
2022/08/02 04:21:20;;;;;;;0.60;0.60;;;;;;;;;;1865965;74;26237;-87
2022/08/02 04:23:48;;;;;;;0.60;0.60;;;;;;;;;;1872782;74;26180;-87
2022/08/02 04:26:17;;;;;;;0.50;0.50;;;;;;;;;;1852679;74;26240;-87
2022/08/02 04:28:44;;;;;;;0.60;0.60;;;;;;;;;;1875446;74;26206;-87
2022/08/02 04:31:12;;;;;;;0.50;0.50;;;;;;;;;;1873343;75;26241;-87
2022/08/02 04:33:39;;;;;;;0.60;0.60;;;;;;;;;;1881929;74;26311;-87
2022/08/02 04:36:07;;;;;;;0.57;0.57;;;;;;;;;;1867838;75;26184;-87
2022/08/02 04:38:34;;;;;;;0.60;0.60;;;;;;;;;;1854875;75;26320;-87
2022/08/02 04:41:01;;;;;;;0.53;0.53;;;;;;;;;;1879973;74;26233;-87
2022/08/02 04:43:29;;;;;;;0.60;0.60;;;;;;;;;;1903853;74;26202;-87
2022/08/02 04:45:56;;;;;;;0.50;0.50;;;;;;;;;;1868176;74;26221;-87
2022/08/02 04:48:23;;;;;;;0.60;0.60;;;;;;;;;;1891008;75;26192;-87
2022/08/02 04:50:51;;;;;;;0.65;0.65;;;;;;;;;;1881089;74;26864;-87
2022/08/02 04:53:18;;;;;;;0.47;0.47;;;;;;;;;;1885474;75;26203;-87
2022/08/02 04:55:46;;;;;;;0.70;0.70;;;;;;;;;;1872133;75;26221;-88
2022/08/02 04:58:13;;;;;;;0.50;0.50;;;;;;;;;;1854443;75;26225;-87
2022/08/02 05:00:41;;;;;;;0.55;0.55;;;;;;;;;;1862003;75;26269;-87
2022/08/02 05:03:08;;;;;;;0.70;0.70;;;;;;;;;;1897538;74;26249;-87
2022/08/02 05:05:35;;;;;;;0.65;0.60;;;;;;;;;;1883216;74;26258;-88
2022/08/02 05:08:03;;;;;;;0.50;0.50;;;;;;;;;;1852991;74;26335;-87
2022/08/02 05:10:30;;;;;;;0.50;0.50;;;;;;;;;;1872406;74;26224;-87
2022/08/02 05:12:57;;;;;;;0.72;0.72;;;;;;;;;;1877360;75;26242;-87
2022/08/02 05:15:24;;;;;;;0.60;0.60;;;;;;;;;;1870160;74;26681;-86
2022/08/02 05:17:52;;;;;;;0.60;0.60;;;;;;;;;;1901155;75;26156;-87
2022/08/02 05:20:19;;;;;;;0.53;0.53;;;;;;;;;;1884657;74;26261;-87
2022/08/02 05:22:47;;;;;;;0.60;0.60;;;;;;;;;;1896867;74;26426;-87
2022/08/02 05:25:14;;;;;;;0.50;0.50;;;;;;;;;;1860623;76;26269;-86
2022/08/02 05:27:41;;;;;;;0.50;0.50;;;;;;;;;;1878248;74;26674;-87
2022/08/02 05:30:09;;;;;;;0.55;0.55;;;;;;;;;;1871425;75;26221;-87
2022/08/02 05:32:44;;;;;;;0.53;0.53;;;;;;;;;;1866366;74;26685;-87
2022/08/02 05:35:11;;;;;;;0.60;0.60;;;;;;;;;;1859465;75;26253;-87
2022/08/02 05:37:38;;;;;;;0.60;0.60;;;;;;;;;;1883649;74;26285;-87
2022/08/02 05:40:06;;;;;;;0.53;0.53;;;;;;;;;;1877403;75;26214;-88
2022/08/02 05:42:33;;;;;;;0.60;0.60;;;;;;;;;;1876389;75;26236;-87
2022/08/02 05:45:01;;;;;;;0.50;0.50;;;;;;;;;;1877208;75;26304;-85
2022/08/02 05:47:28;;;;;;;0.60;0.60;;;;;;;;;;1876829;74;26230;-88
2022/08/02 05:49:55;;;;;;;0.60;0.60;;;;;;;;;;1878346;73;26197;-89
2022/08/02 05:52:25;;;;;;;0.50;0.50;;;;;;;;;;1875240;75;26220;-86
2022/08/02 05:55:09;;;;;;;0.68;0.68;;;;;;;;;;1881501;74;26169;-88
2022/08/02 05:57:52;;;;;;;0.57;0.57;;;;;;;;;;1866762;75;26257;-88
2022/08/02 06:00:20;;;;;;;0.60;0.60;;;;;;;;;;1875138;73;26261;-89
2022/08/02 06:02:55;;;;;;;0.57;0.57;;;;;;;;;;1868057;74;26307;-87
2022/08/02 06:05:23;;;;;;;0.60;0.60;;;;;;;;;;1868392;74;26229;-88
2022/08/02 06:07:50;;;;;;;0.53;0.53;;;;;;;;;;1866905;75;26232;-87
2022/08/02 06:10:19;;;;;;;1.10;0.60;;;;;;;;;;1868233;75;25976;-88
2022/08/02 06:13:06;;;;;;;0.60;0.60;;;;;;;;;;1876081;75;26219;-87
2022/08/02 06:15:34;;;;;;;0.65;0.65;;;;;;;;;;1862105;75;26237;-86
2022/08/02 06:18:02;;;;;;;0.50;0.50;;;;;;;;;;1867625;75;26667;-87
2022/08/02 06:20:36;;;;;;;0.60;0.60;;;;;;;;;;1863920;76;26710;-88
2022/08/02 06:23:05;;;;;;;0.65;0.65;;;;;;;;;;1880322;75;26300;-87
2022/08/02 06:25:33;;;;;;;0.70;0.70;;;;;;;;;;1861762;74;26295;-85
2022/08/02 06:28:01;;;;;;;0.65;0.65;;;;;;;;;;1885042;75;26678;-86
2022/08/02 06:30:29;;;;;;;0.70;0.70;;;;;;;;;;1874733;74;26252;-87
2022/08/02 06:32:56;;;;;;;0.70;0.70;;;;;;;;;;1862030;74;26725;-87
2022/08/02 06:35:25;;;;;;;0.70;0.70;;;;;;;;;;1866120;74;26295;-86
2022/08/02 06:37:54;;;;;;;0.70;0.70;;;;;;;;;;1869731;74;26258;-86
2022/08/02 06:40:29;;;;;;;0.57;0.57;;;;;;;;;;1873797;75;26251;-86
2022/08/02 06:43:03;;;;;;;0.60;0.60;;;;;;;;;;1888766;74;26322;-86
2022/08/02 06:45:32;;;;;;;0.80;0.80;;;;;;;;;;1890514;74;26312;-86
2022/08/02 06:47:59;;;;;;;0.68;0.68;;;;;;;;;;1871196;74;26215;-88
2022/08/02 06:50:27;;;;;;;0.70;0.70;;;;;;;;;;1868212;75;26831;-87
2022/08/02 06:52:54;;;;;;;0.88;0.88;;;;;;;;;;1857731;74;26240;-86
2022/08/02 06:55:21;;;;;;;0.80;0.80;;;;;;;;;;1853354;75;26275;-87
2022/08/02 06:57:49;;;;;;;0.75;0.75;;;;;;;;;;1869152;75;27012;-86
2022/08/02 07:00:16;;;;;;;1.25;0.75;;;;;;;;;;1868749;75;26242;-87
2022/08/02 07:02:43;;;;;;;0.80;0.80;;;;;;;;;;1865848;74;26229;-87
2022/08/02 07:05:11;;;;;;;0.60;0.60;;;;;;;;;;1871941;75;26280;-87
2022/08/02 07:07:38;;;;;;;0.93;0.93;;;;;;;;;;1874278;75;26277;-86
2022/08/02 07:10:06;;;;;;;1.10;1.00;;;;;;;;;;1870512;75;26802;-87
2022/08/02 07:12:34;;;;;;;0.90;0.75;;;;;;;;;;1868987;75;26291;-89
2022/08/02 07:15:03;;;;;;;0.80;0.80;;;;;;;;;;1868578;74;26655;-87
2022/08/02 07:17:30;;;;;;;0.80;0.80;;;;;;;;;;1866326;75;26257;-87
2022/08/02 07:19:57;;;;;;;0.70;0.70;;;;;;;;;;1862421;74;26279;-87
2022/08/02 07:22:25;;;;;;;1.77;0.88;;;;;;;;;;1872193;74;26325;-88
2022/08/02 07:24:53;;;;;;;0.70;0.70;;;;;;;;;;1871978;75;26279;-86
2022/08/02 07:27:21;;;;;;;1.67;0.70;;;;;;;;;;1869013;75;26389;-85
2022/08/02 07:29:48;;;;;;;2.65;0.80;;;;;;;;;;1868174;74;26340;-87
2022/08/02 07:32:17;;;;;;;0.70;0.70;;;;;;;;;;1832340;75;26273;-87
2022/08/02 07:34:45;;;;;;;0.88;0.70;;;;;;;;;;1862222;75;26290;-86
2022/08/02 07:37:12;;;;;;;0.80;0.80;;;;;;;;;;1861121;75;26364;-87
2022/08/02 07:39:39;;;;;;;0.65;0.65;;;;;;;;;;1861705;75;26272;-87
2022/08/02 07:42:06;;;;;;;0.68;0.68;;;;;;;;;;1864431;75;26268;-87
2022/08/02 07:44:34;;;;;;;2.95;0.80;;;;;;;;;;1860618;75;26260;-87
2022/08/02 07:47:02;;;;;;;0.80;0.80;;;;;;;;;;1871553;75;26308;-87
2022/08/02 07:49:29;;;;;;;0.70;0.70;;;;;;;;;;1860207;75;26210;-87
2022/08/02 07:51:57;;;;;;;1.20;0.80;;;;;;;;;;1868934;74;26848;-86
2022/08/02 07:54:25;;;;;;;0.80;0.80;;;;;;;;;;1894116;74;26225;-88
2022/08/02 07:56:53;;;;;;;1.42;0.90;;;;;;;;;;1870443;74;26259;-87
2022/08/02 07:59:21;;;;;;;0.70;0.70;;;;;;;;;;1870073;74;26639;-88
2022/08/02 08:01:50;;;;;;;0.70;0.70;;;;;;;;;;1873880;74;26701;-86
2022/08/02 08:04:17;;;;;;;1.65;0.80;;;;;;;;;;1869614;74;27056;-87
2022/08/02 08:06:44;;;;;;;0.80;0.70;;;;;;;;;;1870738;74;26260;-88
2022/08/02 08:09:12;;;;;;;0.90;0.80;;;;;;;;;;1871878;74;26346;-87
2022/08/02 08:11:39;;;;;;;0.90;0.80;;;;;;;;;;1874055;74;26307;-87
2022/08/02 08:14:06;;;;;;;0.80;0.80;;;;;;;;;;1852268;75;26272;-86
2022/08/02 08:16:33;;;;;;;1.80;0.80;;;;;;;;;;1859650;75;26217;-86
2022/08/02 08:19:01;;;;;;;0.70;0.70;;;;;;;;;;1864848;75;26232;-86
2022/08/02 08:21:28;;;;;;;0.78;0.78;;;;;;;;;;1865543;75;26288;-85
2022/08/02 08:23:56;;;;;;;0.62;0.62;;;;;;;;;;1863451;75;26609;-86
2022/08/02 08:26:25;;;;;;;0.70;0.70;;;;;;;;;;1872236;75;26305;-87
2022/08/02 08:28:52;;;;;;;0.78;0.70;;;;;;;;;;1880962;75;26278;-86
2022/08/02 08:31:20;;;;;;;0.93;0.80;;;;;;;;;;1850995;75;26217;-86
2022/08/02 08:33:47;;;;;;;0.70;0.70;;;;;;;;;;1861548;75;26251;-86
2022/08/02 08:36:15;;;;;;;0.95;0.70;;;;;;;;;;1873695;75;26312;-86
2022/08/02 08:38:42;;;;;;;0.80;0.80;;;;;;;;;;1871041;75;26308;-88
2022/08/02 08:41:10;;;;;;;1.00;0.80;;;;;;;;;;1864636;75;26235;-86
2022/08/02 08:43:37;;;;;;;0.85;0.72;;;;;;;;;;1870716;75;26273;-86
2022/08/02 08:46:05;;;;;;;0.70;0.70;;;;;;;;;;1860969;74;26254;-87
2022/08/02 08:48:32;;;;;;;0.85;0.82;;;;;;;;;;1867350;75;26336;-87
2022/08/02 08:51:10;;;;;;;0.70;0.70;;;;;;;;;;1868396;75;26237;-87
2022/08/02 08:53:42;;;;;;;0.95;0.75;;;;;;;;;;1861610;75;26229;-86
2022/08/02 08:56:11;;;;;;;0.88;0.88;;;;;;;;;;1868500;74;26352;-87
2022/08/02 08:58:38;;;;;;;0.80;0.80;;;;;;;;;;1870439;74;26653;-87
2022/08/02 09:01:06;;;;;;;0.80;0.80;;;;;;;;;;1874541;75;26272;-86
2022/08/02 09:03:33;;;;;;;0.70;0.70;;;;;;;;;;1863398;75;26241;-86
2022/08/02 09:06:01;;;;;;;0.90;0.90;;;;;;;;;;1870185;74;26701;-86
2022/08/02 09:08:28;;;;;;;0.80;0.80;;;;;;;;;;1878339;75;26222;-87
2022/08/02 09:10:55;;;;;;;1.00;0.80;;;;;;;;;;1872586;74;26324;-87
2022/08/02 09:13:30;;;;;;;2.35;0.82;;;;;;;;;;1894206;74;26686;-87
2022/08/02 09:15:59;;;;;;;0.80;0.80;;;;;;;;;;1853063;75;26225;-88
2022/08/02 09:18:30;;;;;;;0.70;0.70;;;;;;;;;;1860413;75;26301;-86
2022/08/02 09:20:59;;;;;;;1.65;0.90;;;;;;;;;;1855491;74;26229;-87
2022/08/02 09:23:28;;;;;;;1.55;0.85;;;;;;;;;;1876313;74;26683;-87
2022/08/02 09:26:02;;;;;;;1.52;0.93;;;;;;;;;;1860808;74;26666;-85
2022/08/02 09:28:31;;;;;;;0.88;0.88;;;;;;;;;;1860110;75;26203;-87
2022/08/02 09:31:05;;;;;;;0.80;0.80;;;;;;;;;;1874375;75;26220;-89
2022/08/02 09:33:32;;;;;;;0.85;0.85;;;;;;;;;;1860607;74;26365;-86
2022/08/02 09:36:04;;;;;;;0.80;0.80;;;;;;;;;;1866954;75;26287;-86
2022/08/02 09:38:32;;;;;;;0.70;0.70;;;;;;;;;;1860077;75;26222;-85
2022/08/02 09:41:00;;;;;;;0.80;0.80;;;;;;;;;;1828773;75;27025;-86
2022/08/02 09:43:36;;;;;;;0.80;0.80;;;;;;;;;;1863392;74;26221;-86
2022/08/02 09:46:10;;;;;;;0.88;0.78;;;;;;;;;;1858394;75;26276;-85
2022/08/02 09:48:51;;;;;;;0.80;0.80;;;;;;;;;;1884089;74;26231;-85
2022/08/02 09:51:19;;;;;;;1.05;0.80;;;;;;;;;;1864489;74;26670;-87
2022/08/02 09:53:48;;;;;;;2.62;1.10;;;;;;;;;;1858546;75;26232;-86
2022/08/02 09:56:18;;;;;;;0.70;0.70;;;;;;;;;;1874791;74;26211;-86
2022/08/02 09:58:45;;;;;;;1.02;0.80;;;;;;;;;;1865721;75;26252;-87
2022/08/02 10:01:13;;;;;;;0.80;0.80;;;;;;;;;;1875277;74;26358;-86
2022/08/02 10:03:41;;;;;;;0.80;0.80;;;;;;;;;;1878050;74;26226;-85
2022/08/02 10:06:09;;;;;;;1.07;0.80;;;;;;;;;;1871606;74;26228;-86
2022/08/02 10:08:36;;;;;;;0.80;0.80;;;;;;;;;;1872281;75;26317;-86
2022/08/02 10:11:03;;;;;;;0.90;0.90;;;;;;;;;;1855115;75;26189;-86
2022/08/02 10:13:33;;;;;;;1.27;0.88;;;;;;;;;;1865371;75;26358;-85
2022/08/02 10:16:05;;;;;;;0.90;0.90;;;;;;;;;;1866478;75;26245;-86
2022/08/02 10:18:30;;;;;;;0.90;0.90;;;;;;;;;;1877266;75;26226;-85
2022/08/02 10:20:57;;;;;;;1.65;0.90;;;;;;;;;;1862769;74;26230;-85
2022/08/02 10:23:26;;;;;;;1.05;0.80;;;;;;;;;;1855305;75;26300;-86
2022/08/02 10:25:53;;;;;;;0.70;0.70;;;;;;;;;;1860947;74;26289;-85
2022/08/02 10:28:22;;;;;;;1.07;0.80;;;;;;;;;;1884581;74;26389;-86
2022/08/02 10:30:50;;;;;;;1.57;0.88;;;;;;;;;;1860567;74;26306;-86
2022/08/02 10:33:18;;;;;;;0.70;0.70;;;;;;;;;;1861420;75;26444;-85
2022/08/02 10:35:47;;;;;;;0.80;0.80;;;;;;;;;;1858795;75;26320;-86
2022/08/02 10:38:15;;;;;;;0.90;0.90;;;;;;;;;;1874040;75;26201;-86
2022/08/02 10:40:44;;;;;;;0.82;0.82;;;;;;;;;;1873627;74;26731;-86
2022/08/02 10:43:12;;;;;;;0.70;0.70;;;;;;;;;;1881193;74;26709;-86
2022/08/02 10:45:39;;;;;;;0.75;0.75;;;;;;;;;;1861396;74;26253;-88
2022/08/02 10:48:11;;;;;;;0.80;0.80;;;;;;;;;;1871868;75;26348;-87
2022/08/02 10:50:49;;;;;;;0.70;0.70;;;;;;;;;;1879390;74;26223;-85
2022/08/02 10:53:30;;;;;;;0.78;0.78;;;;;;;;;;1860489;75;26296;-87
2022/08/02 10:56:01;;;;;;;0.70;0.70;;;;;;;;;;1851194;75;26226;-87
2022/08/02 10:58:33;;;;;;;0.60;0.60;;;;;;;;;;1854096;75;26233;-86
2022/08/02 11:01:07;;;;;;;0.80;0.80;;;;;;;;;;1862549;75;26197;-86
2022/08/02 11:03:38;;;;;;;0.60;0.60;;;;;;;;;;1854024;74;26170;-86
2022/08/02 11:06:05;;;;;;;0.90;0.90;;;;;;;;;;1872735;74;26289;-86
2022/08/02 11:08:33;;;;;;;0.70;0.70;;;;;;;;;;1865875;74;26710;-86
2022/08/02 11:11:01;;;;;;;0.70;0.70;;;;;;;;;;1858042;75;26233;-87
2022/08/02 11:13:29;;;;;;;0.75;0.75;;;;;;;;;;1868901;75;26246;-87
2022/08/02 11:16:00;;;;;;;0.85;0.72;;;;;;;;;;1862828;75;26229;-86
2022/08/02 11:18:45;;;;;;;0.75;0.75;;;;;;;;;;1862002;75;26319;-87
2022/08/02 11:21:23;;;;;;;0.70;0.70;;;;;;;;;;1865893;75;26321;-88
2022/08/02 11:23:51;;;;;;;0.80;0.80;;;;;;;;;;1836133;75;26290;-89
2022/08/02 11:26:31;;;;;;;0.88;0.80;;;;;;;;;;1866728;75;26678;-89
2022/08/02 11:29:00;;;;;;;0.90;0.85;;;;;;;;;;1861482;75;26242;-87
2022/08/02 11:31:27;;;;;;;0.80;0.80;;;;;;;;;;1859211;74;26362;-89
2022/08/02 11:33:55;;;;;;;0.85;0.80;;;;;;;;;;1865540;75;26293;-88
2022/08/02 11:36:22;;;;;;;0.70;0.70;;;;;;;;;;1867340;75;26320;-88
2022/08/02 11:38:49;;;;;;;2.10;0.90;;;;;;;;;;1856210;75;26221;-90
2022/08/02 11:41:20;;;;;;;1.20;0.80;;;;;;;;;;1871789;75;26229;-89
2022/08/02 11:43:49;;;;;;;0.78;0.78;;;;;;;;;;1864817;75;26197;-90
2022/08/02 11:46:16;;;;;;;0.72;0.72;;;;;;;;;;1858819;75;26311;-89
2022/08/02 11:48:43;;;;;;;0.75;0.75;;;;;;;;;;1869586;74;26284;-88
2022/08/02 11:51:12;;;;;;;0.70;0.70;;;;;;;;;;1865867;75;26697;-88
2022/08/02 11:53:47;;;;;;;0.90;0.90;;;;;;;;;;1877219;75;26739;-88
2022/08/02 11:56:15;;;;;;;0.70;0.70;;;;;;;;;;1867147;75;26260;-88
2022/08/02 11:58:44;;;;;;;0.70;0.70;;;;;;;;;;1859037;75;26261;-89
2022/08/02 12:01:11;;;;;;;0.70;0.70;;;;;;;;;;1863227;74;26267;-89
2022/08/02 12:03:39;;;;;;;0.60;0.60;;;;;;;;;;1888113;74;26223;-89
2022/08/02 12:06:06;;;;;;;0.60;0.60;;;;;;;;;;1878307;75;26295;-89
2022/08/02 12:08:35;;;;;;;0.60;0.60;;;;;;;;;;1885287;74;26241;-88
2022/08/02 12:11:02;;;;;;;0.60;0.60;;;;;;;;;;1872380;75;26272;-90
2022/08/02 12:13:31;;;;;;;0.57;0.57;;;;;;;;;;1882078;75;26651;-89
2022/08/02 12:19:17;;;;;;;0.55;0.55;;;;;;;;;;1869001;75;26186;-88
2022/08/02 12:21:22;;;;;;;2.25;0.50;;;;;;;;;;1857929;74;26236;-87
2022/08/02 12:23:50;;;;;;;0.50;0.50;;;;;;;;;;1870911;75;27209;-88
2022/08/02 12:26:17;;;;;;;0.60;0.60;;;;;;;;;;1874284;74;26320;-88
2022/08/02 12:28:44;;;;;;;0.60;0.60;;;;;;;;;;1858915;74;26254;-88
2022/08/02 12:31:16;;;;;;;0.60;0.60;;;;;;;;;;1868436;74;26256;-89
2022/08/02 12:33:45;;;;;;;1.27;0.50;;;;;;;;;;1865728;74;26328;-88
2022/08/02 12:36:16;;;;;;;1.27;0.50;;;;;;;;;;1870819;75;26333;-89
2022/08/02 12:38:59;;;;;;;0.85;0.70;;;;;;;;;;1879760;75;26345;-89
2022/08/02 12:41:27;;;;;;;0.60;0.60;;;;;;;;;;1865844;74;26238;-89
2022/08/02 12:43:55;;;;;;;0.50;0.50;;;;;;;;;;1868759;74;26755;-89
2022/08/02 12:46:23;;;;;;;0.45;0.45;;;;;;;;;;1867078;75;26807;-89
2022/08/02 12:48:50;;;;;;;0.57;0.57;;;;;;;;;;1876171;75;26219;-85
2022/08/02 12:51:33;;;;;;;0.50;0.50;;;;;;;;;;1879133;74;26283;-89
2022/08/02 12:54:14;;;;;;;0.62;0.62;;;;;;;;;;1881784;72;26215;-89
2022/08/02 12:56:42;;;;;;;0.50;0.50;;;;;;;;;;1866917;75;26283;-89
2022/08/02 12:59:09;;;;;;;2.25;0.70;;;;;;;;;;1870056;75;26295;-89
2022/08/02 13:01:39;;;;;;;0.68;0.60;;;;;;;;;;1875923;74;26335;-89
2022/08/02 13:04:07;;;;;;;0.50;0.50;;;;;;;;;;1871825;73;26254;-87
2022/08/02 13:06:34;;;;;;;0.50;0.50;;;;;;;;;;1876581;75;26248;-86
2022/08/02 13:09:02;;;;;;;0.40;0.40;;;;;;;;;;1874762;74;26632;-86
2022/08/02 13:11:30;;;;;;;0.50;0.50;;;;;;;;;;1888235;75;26224;-90
2022/08/02 13:13:57;;;;;;;0.70;0.50;;;;;;;;;;1865682;75;26736;-90
2022/08/02 13:16:24;;;;;;;0.50;0.50;;;;;;;;;;1874178;75;26801;-89
2022/08/02 13:18:51;;;;;;;0.62;0.50;;;;;;;;;;1869822;75;26728;-90
2022/08/02 13:21:19;;;;;;;0.75;0.60;;;;;;;;;;1866310;75;26260;-89
2022/08/02 13:23:46;;;;;;;0.88;0.55;;;;;;;;;;1869771;76;26258;-89
2022/08/02 13:26:13;;;;;;;0.55;0.55;;;;;;;;;;1868827;75;26315;-89
2022/08/02 13:28:41;;;;;;;1.62;0.65;;;;;;;;;;1871454;76;26219;-89
2022/08/02 13:31:09;;;;;;;1.12;0.60;;;;;;;;;;1869252;75;26213;-88
2022/08/02 13:33:36;;;;;;;0.60;0.50;;;;;;;;;;1875338;75;26856;-89
2022/08/02 13:36:04;;;;;;;0.55;0.50;;;;;;;;;;1861567;75;26696;-89
2022/08/02 13:38:31;;;;;;;0.65;0.47;;;;;;;;;;1871251;75;26264;-89
2022/08/02 13:41:07;;;;;;;1.77;0.50;;;;;;;;;;1877718;74;26253;-89
2022/08/02 13:43:35;;;;;;;1.77;0.40;;;;;;;;;;1884038;75;26204;-91
2022/08/02 13:46:03;;;;;;;3.20;0.60;;;;;;;;;;1898858;75;26218;-88
2022/08/02 13:48:31;;;;;;;2.27;0.40;;;;;;;;;;1881680;75;26717;-87
2022/08/02 13:50:58;;;;;;;0.50;0.50;;;;;;;;;;1887005;75;26235;-87
2022/08/02 13:53:26;;;;;;;0.70;0.50;;;;;;;;;;1866866;75;26304;-88
2022/08/02 13:55:53;;;;;;;0.42;0.42;;;;;;;;;;1880797;75;26236;-88
2022/08/02 13:58:20;;;;;;;1.65;0.50;;;;;;;;;;1836017;76;26184;-88
2022/08/02 14:00:47;;;;;;;0.40;0.40;;;;;;;;;;1863525;75;26259;-88
2022/08/02 14:03:15;;;;;;;0.40;0.40;;;;;;;;;;1887194;74;26241;-88
2022/08/02 14:05:43;;;;;;;0.40;0.40;;;;;;;;;;1884340;74;26249;-88
2022/08/02 14:08:10;;;;;;;2.17;0.50;;;;;;;;;;1873287;75;26168;-88
2022/08/02 14:10:38;;;;;;;0.78;0.50;;;;;;;;;;1860018;75;26306;-87
2022/08/02 14:13:06;;;;;;;2.45;0.50;;;;;;;;;;1859068;74;26246;-87
2022/08/02 14:15:33;;;;;;;0.53;0.50;;;;;;;;;;1838203;75;26691;-86
2022/08/02 14:18:01;;;;;;;2.62;0.68;;;;;;;;;;1856644;75;26245;-88
2022/08/02 14:20:29;;;;;;;0.35;0.35;;;;;;;;;;1862602;75;26211;-88
2022/08/02 14:22:56;;;;;;;1.27;0.50;;;;;;;;;;1864405;75;26237;-89
2022/08/02 14:25:24;;;;;;;1.00;0.50;;;;;;;;;;1867184;74;28256;-90
2022/08/02 14:27:52;;;;;;;0.45;0.45;;;;;;;;;;1856631;76;26244;-88
2022/08/02 14:30:20;;;;;;;0.47;0.47;;;;;;;;;;1856626;75;26373;-88
2022/08/02 14:32:47;;;;;;;0.60;0.60;;;;;;;;;;1868534;75;26256;-89
2022/08/02 14:35:15;;;;;;;0.50;0.50;;;;;;;;;;1862132;75;26232;-88
2022/08/02 14:37:42;;;;;;;0.53;0.53;;;;;;;;;;1863243;74;26324;-88
2022/08/02 14:40:09;;;;;;;0.75;0.68;;;;;;;;;;1877186;75;26338;-86
2022/08/02 14:42:37;;;;;;;1.25;0.60;;;;;;;;;;1868985;75;26211;-86
2022/08/02 14:45:04;;;;;;;0.50;0.50;;;;;;;;;;1869162;75;26247;-87
2022/08/02 14:47:31;;;;;;;0.50;0.50;;;;;;;;;;1859583;75;26278;-87
2022/08/02 14:49:59;;;;;;;2.45;0.60;;;;;;;;;;1850325;75;26368;-86
2022/08/02 14:52:26;;;;;;;0.60;0.60;;;;;;;;;;1870773;75;25816;-86
2022/08/02 14:54:54;;;;;;;0.60;0.60;;;;;;;;;;1869618;75;26294;-86
2022/08/02 14:57:21;;;;;;;0.60;0.60;;;;;;;;;;1868532;74;26713;-86